Main page
METAR-TAF:

METAR-TAF

Airports :

George Best Belfast City Airport

Belfast City, Northern Ireland

latitude: 54-36N, longitude: 005-53W, elevation: 5 m

Current weather observation

The report was made 39 minutes ago, at 23:20 UTC
Wind 5 kt from the Northwest, varying between West/Northwest and North
Temperature 14°C
Humidity 88%
Pressure 1008 hPa
Visibility 10 km or more

METAR: EGAC 302320Z AUTO 32005KT 290V010 9999 OVC012/// 14/12 Q1008

Time: 00:59 (23:59 UTC)

Forecast

The report was made 7 hours and 4 minutes ago, at 16:55 UTC
Forecast valid from 30 at 18 UTC to 30 at 21 UTC
Wind 7 kt from the Northwest
Visibility 10 km or more
Few clouds at a height of 2000 ft
Scattered clouds at a height of 3000 ft

TAF: EGAC 301655Z 3018/3021 32007KT 9999 FEW020 SCT030

Weather observations and forecasts of more than 4000 airports (METAR and TAF reports).

The available stations are represented by yellow and red dots on the map.

Hover mouse over dot to see the name of the station.

Then click to see weather observations and forecasts.

To change the map : click on the green buttons with a black cross to zoom in, on the green button with a dash to zoom out, or on the green arrows for adjacent maps.


METAR-TAF: